sensor_id;sensor_type;location;lat;lon;timestamp;temperature;humidity
25346;DHT22;13300;51.032;3.710;2023-12-20T00:01:36;7.10;99.90
25346;DHT22;13300;51.032;3.710;2023-12-20T00:04:03;7.20;99.90
25346;DHT22;13300;51.032;3.710;2023-12-20T00:06:34;7.10;99.90
25346;DHT22;13300;51.032;3.710;2023-12-20T00:09:00;7.20;99.90
25346;DHT22;13300;51.032;3.710;2023-12-20T00:11:26;7.10;99.90
25346;DHT22;13300;51.032;3.710;2023-12-20T00:13:52;7.10;99.90
25346;DHT22;13300;51.032;3.710;2023-12-20T00:16:18;7.20;99.90
25346;DHT22;13300;51.032;3.710;2023-12-20T00:18:44;7.00;99.90
25346;DHT22;13300;51.032;3.710;2023-12-20T00:21:10;7.00;99.90
25346;DHT22;13300;51.032;3.710;2023-12-20T00:23:36;7.00;99.90
25346;DHT22;13300;51.032;3.710;2023-12-20T00:26:04;7.00;99.90
25346;DHT22;13300;51.032;3.710;2023-12-20T00:28:31;7.00;99.90
25346;DHT22;13300;51.032;3.710;2023-12-20T00:30:57;6.90;99.90
25346;DHT22;13300;51.032;3.710;2023-12-20T00:33:22;7.00;99.90
25346;DHT22;13300;51.032;3.710;2023-12-20T00:35:48;7.00;99.90
25346;DHT22;13300;51.032;3.710;2023-12-20T00:38:14;7.10;99.90
25346;DHT22;13300;51.032;3.710;2023-12-20T00:40:40;7.00;99.90
25346;DHT22;13300;51.032;3.710;2023-12-20T00:43:06;7.00;99.90
25346;DHT22;13300;51.032;3.710;2023-12-20T00:45:31;7.00;99.90
25346;DHT22;13300;51.032;3.710;2023-12-20T00:47:57;7.00;99.90
25346;DHT22;13300;51.032;3.710;2023-12-20T00:50:24;7.00;99.90
25346;DHT22;13300;51.032;3.710;2023-12-20T00:52:50;7.00;99.90
25346;DHT22;13300;51.032;3.710;2023-12-20T00:55:16;7.00;99.90
25346;DHT22;13300;51.032;3.710;2023-12-20T00:57:42;6.90;99.90
25346;DHT22;13300;51.032;3.710;2023-12-20T01:00:07;6.90;99.90
25346;DHT22;13300;51.032;3.710;2023-12-20T01:02:36;6.90;99.90
25346;DHT22;13300;51.032;3.710;2023-12-20T01:05:02;6.90;99.90
25346;DHT22;13300;51.032;3.710;2023-12-20T01:07:28;6.80;99.90
25346;DHT22;13300;51.032;3.710;2023-12-20T01:09:54;6.90;99.90
25346;DHT22;13300;51.032;3.710;2023-12-20T01:12:19;6.90;99.90
25346;DHT22;13300;51.032;3.710;2023-12-20T01:14:46;7.00;99.90
25346;DHT22;13300;51.032;3.710;2023-12-20T01:17:12;7.00;99.90
25346;DHT22;13300;51.032;3.710;2023-12-20T01:19:37;6.90;99.90
25346;DHT22;13300;51.032;3.710;2023-12-20T01:22:03;7.00;99.90
25346;DHT22;13300;51.032;3.710;2023-12-20T01:24:29;7.10;99.90
25346;DHT22;13300;51.032;3.710;2023-12-20T01:26:55;7.10;99.90
25346;DHT22;13300;51.032;3.710;2023-12-20T01:29:20;7.30;99.90
25346;DHT22;13300;51.032;3.710;2023-12-20T01:31:46;7.30;99.90
25346;DHT22;13300;51.032;3.710;2023-12-20T01:34:12;7.40;99.90
25346;DHT22;13300;51.032;3.710;2023-12-20T01:36:38;7.40;99.90
25346;DHT22;13300;51.032;3.710;2023-12-20T01:39:04;7.30;99.90
25346;DHT22;13300;51.032;3.710;2023-12-20T01:41:29;7.30;99.90
25346;DHT22;13300;51.032;3.710;2023-12-20T01:43:55;7.20;99.90
25346;DHT22;13300;51.032;3.710;2023-12-20T01:46:21;7.20;99.90
25346;DHT22;13300;51.032;3.710;2023-12-20T01:48:48;7.30;99.90
25346;DHT22;13300;51.032;3.710;2023-12-20T01:51:14;7.20;99.90
25346;DHT22;13300;51.032;3.710;2023-12-20T01:53:41;7.20;99.90
25346;DHT22;13300;51.032;3.710;2023-12-20T01:56:08;7.20;99.90
25346;DHT22;13300;51.032;3.710;2023-12-20T01:58:34;7.20;99.90
25346;DHT22;13300;51.032;3.710;2023-12-20T02:01:00;7.30;99.90
25346;DHT22;13300;51.032;3.710;2023-12-20T02:03:26;7.10;99.90
25346;DHT22;13300;51.032;3.710;2023-12-20T02:05:52;7.20;99.90
25346;DHT22;13300;51.032;3.710;2023-12-20T02:08:18;7.20;99.90
25346;DHT22;13300;51.032;3.710;2023-12-20T02:10:44;7.20;99.90
25346;DHT22;13300;51.032;3.710;2023-12-20T02:13:10;7.20;99.90
25346;DHT22;13300;51.032;3.710;2023-12-20T02:15:36;7.30;99.90
25346;DHT22;13300;51.032;3.710;2023-12-20T02:18:03;7.30;99.90
25346;DHT22;13300;51.032;3.710;2023-12-20T02:20:29;7.30;99.90
25346;DHT22;13300;51.032;3.710;2023-12-20T02:22:55;7.30;99.90
25346;DHT22;13300;51.032;3.710;2023-12-20T02:25:21;7.40;99.90
25346;DHT22;13300;51.032;3.710;2023-12-20T02:27:47;7.40;99.90
25346;DHT22;13300;51.032;3.710;2023-12-20T02:30:14;7.50;99.90
25346;DHT22;13300;51.032;3.710;2023-12-20T02:32:39;7.50;99.90
25346;DHT22;13300;51.032;3.710;2023-12-20T02:35:05;7.60;99.90
25346;DHT22;13300;51.032;3.710;2023-12-20T02:37:33;7.60;99.90
25346;DHT22;13300;51.032;3.710;2023-12-20T02:39:59;7.60;99.90
25346;DHT22;13300;51.032;3.710;2023-12-20T02:42:25;7.60;99.90
25346;DHT22;13300;51.032;3.710;2023-12-20T02:44:51;7.70;99.90
25346;DHT22;13300;51.032;3.710;2023-12-20T02:47:17;7.70;99.90
25346;DHT22;13300;51.032;3.710;2023-12-20T02:49:42;7.70;99.90
25346;DHT22;13300;51.032;3.710;2023-12-20T02:52:08;7.80;99.90
25346;DHT22;13300;51.032;3.710;2023-12-20T02:54:34;7.80;99.90
25346;DHT22;13300;51.032;3.710;2023-12-20T02:57:00;7.80;99.90
25346;DHT22;13300;51.032;3.710;2023-12-20T02:59:26;7.80;99.90
25346;DHT22;13300;51.032;3.710;2023-12-20T03:01:51;7.80;99.90
25346;DHT22;13300;51.032;3.710;2023-12-20T03:04:17;7.70;99.90
25346;DHT22;13300;51.032;3.710;2023-12-20T03:06:44;7.70;99.90
25346;DHT22;13300;51.032;3.710;2023-12-20T03:09:09;7.70;99.90
25346;DHT22;13300;51.032;3.710;2023-12-20T03:11:35;7.70;99.90
25346;DHT22;13300;51.032;3.710;2023-12-20T03:14:01;7.70;99.90
25346;DHT22;13300;51.032;3.710;2023-12-20T03:16:27;7.60;99.90
25346;DHT22;13300;51.032;3.710;2023-12-20T03:18:53;7.70;99.90
25346;DHT22;13300;51.032;3.710;2023-12-20T03:21:19;7.70;99.90
25346;DHT22;13300;51.032;3.710;2023-12-20T03:23:45;7.70;99.90
25346;DHT22;13300;51.032;3.710;2023-12-20T03:26:11;7.70;99.90
25346;DHT22;13300;51.032;3.710;2023-12-20T03:28:37;7.70;99.90
25346;DHT22;13300;51.032;3.710;2023-12-20T03:31:05;7.60;99.90
25346;DHT22;13300;51.032;3.710;2023-12-20T03:33:31;7.50;99.90
25346;DHT22;13300;51.032;3.710;2023-12-20T03:35:57;7.50;99.90
25346;DHT22;13300;51.032;3.710;2023-12-20T03:38:23;7.50;99.90
25346;DHT22;13300;51.032;3.710;2023-12-20T03:40:50;7.50;99.90
25346;DHT22;13300;51.032;3.710;2023-12-20T03:43:16;7.50;99.90
25346;DHT22;13300;51.032;3.710;2023-12-20T03:45:44;7.60;99.90
25346;DHT22;13300;51.032;3.710;2023-12-20T03:48:11;7.50;99.90
25346;DHT22;13300;51.032;3.710;2023-12-20T03:50:37;7.60;99.90
25346;DHT22;13300;51.032;3.710;2023-12-20T03:53:03;7.50;99.90
25346;DHT22;13300;51.032;3.710;2023-12-20T03:55:29;7.50;99.90
25346;DHT22;13300;51.032;3.710;2023-12-20T03:57:55;7.40;99.90
25346;DHT22;13300;51.032;3.710;2023-12-20T04:00:20;7.40;99.90
25346;DHT22;13300;51.032;3.710;2023-12-20T04:02:46;7.50;99.90
25346;DHT22;13300;51.032;3.710;2023-12-20T04:05:12;7.50;99.90
25346;DHT22;13300;51.032;3.710;2023-12-20T04:07:38;7.40;99.90
25346;DHT22;13300;51.032;3.710;2023-12-20T04:10:04;7.40;99.90
25346;DHT22;13300;51.032;3.710;2023-12-20T04:12:31;7.40;99.90
25346;DHT22;13300;51.032;3.710;2023-12-20T04:14:57;7.40;99.90
25346;DHT22;13300;51.032;3.710;2023-12-20T04:17:23;7.40;99.90
25346;DHT22;13300;51.032;3.710;2023-12-20T04:19:49;7.40;99.90
25346;DHT22;13300;51.032;3.710;2023-12-20T04:22:16;7.40;99.90
25346;DHT22;13300;51.032;3.710;2023-12-20T04:24:42;7.30;99.90
25346;DHT22;13300;51.032;3.710;2023-12-20T04:27:08;7.30;99.90
25346;DHT22;13300;51.032;3.710;2023-12-20T04:29:34;7.30;99.90
25346;DHT22;13300;51.032;3.710;2023-12-20T04:31:59;7.20;99.90
25346;DHT22;13300;51.032;3.710;2023-12-20T04:34:25;7.30;99.90
25346;DHT22;13300;51.032;3.710;2023-12-20T04:36:54;7.20;99.90
25346;DHT22;13300;51.032;3.710;2023-12-20T04:39:20;7.20;99.90
25346;DHT22;13300;51.032;3.710;2023-12-20T04:41:46;7.10;99.90
25346;DHT22;13300;51.032;3.710;2023-12-20T04:44:13;7.10;99.90
25346;DHT22;13300;51.032;3.710;2023-12-20T04:46:39;7.10;99.90
25346;DHT22;13300;51.032;3.710;2023-12-20T04:49:05;7.10;99.90
25346;DHT22;13300;51.032;3.710;2023-12-20T04:51:33;7.00;99.90
25346;DHT22;13300;51.032;3.710;2023-12-20T04:53:59;7.00;99.90
25346;DHT22;13300;51.032;3.710;2023-12-20T04:56:25;6.90;99.90
25346;DHT22;13300;51.032;3.710;2023-12-20T04:58:51;6.80;99.90
25346;DHT22;13300;51.032;3.710;2023-12-20T05:01:16;6.70;99.90
25346;DHT22;13300;51.032;3.710;2023-12-20T05:03:42;6.70;99.90
25346;DHT22;13300;51.032;3.710;2023-12-20T05:06:09;6.70;99.90
25346;DHT22;13300;51.032;3.710;2023-12-20T05:08:35;6.60;99.90
25346;DHT22;13300;51.032;3.710;2023-12-20T05:11:00;6.60;99.90
25346;DHT22;13300;51.032;3.710;2023-12-20T05:13:26;6.60;99.90
25346;DHT22;13300;51.032;3.710;2023-12-20T05:15:52;6.70;99.90
25346;DHT22;13300;51.032;3.710;2023-12-20T05:18:18;6.60;99.90
25346;DHT22;13300;51.032;3.710;2023-12-20T05:20:43;6.70;99.90
25346;DHT22;13300;51.032;3.710;2023-12-20T05:23:09;6.70;99.90
25346;DHT22;13300;51.032;3.710;2023-12-20T05:25:35;6.80;99.90
25346;DHT22;13300;51.032;3.710;2023-12-20T05:28:01;6.90;99.90
25346;DHT22;13300;51.032;3.710;2023-12-20T05:30:26;6.90;99.90
25346;DHT22;13300;51.032;3.710;2023-12-20T05:32:52;6.90;99.90
25346;DHT22;13300;51.032;3.710;2023-12-20T05:35:18;6.90;99.90
25346;DHT22;13300;51.032;3.710;2023-12-20T05:37:44;7.00;99.90
25346;DHT22;13300;51.032;3.710;2023-12-20T05:40:10;7.00;99.90
25346;DHT22;13300;51.032;3.710;2023-12-20T05:42:36;7.00;99.90
25346;DHT22;13300;51.032;3.710;2023-12-20T05:45:04;7.10;99.90
25346;DHT22;13300;51.032;3.710;2023-12-20T05:47:29;7.10;99.90
25346;DHT22;13300;51.032;3.710;2023-12-20T05:49:55;7.10;99.90
25346;DHT22;13300;51.032;3.710;2023-12-20T05:52:21;7.10;99.90
25346;DHT22;13300;51.032;3.710;2023-12-20T05:54:47;7.10;99.90
25346;DHT22;13300;51.032;3.710;2023-12-20T05:57:13;7.10;99.90
25346;DHT22;13300;51.032;3.710;2023-12-20T05:59:38;7.00;99.90
25346;DHT22;13300;51.032;3.710;2023-12-20T06:02:05;7.00;99.90
25346;DHT22;13300;51.032;3.710;2023-12-20T06:04:31;6.90;99.90
25346;DHT22;13300;51.032;3.710;2023-12-20T06:06:56;6.90;99.90
25346;DHT22;13300;51.032;3.710;2023-12-20T06:09:22;6.90;99.90
25346;DHT22;13300;51.032;3.710;2023-12-20T06:11:48;6.80;99.90
25346;DHT22;13300;51.032;3.710;2023-12-20T06:14:14;6.80;99.90
25346;DHT22;13300;51.032;3.710;2023-12-20T06:16:39;6.70;99.90
25346;DHT22;13300;51.032;3.710;2023-12-20T06:19:05;6.70;99.90
25346;DHT22;13300;51.032;3.710;2023-12-20T06:21:31;6.70;99.90
25346;DHT22;13300;51.032;3.710;2023-12-20T06:23:59;6.60;99.90
25346;DHT22;13300;51.032;3.710;2023-12-20T06:26:25;6.60;99.90
25346;DHT22;13300;51.032;3.710;2023-12-20T06:28:51;6.60;99.90
25346;DHT22;13300;51.032;3.710;2023-12-20T06:31:17;6.60;99.90
25346;DHT22;13300;51.032;3.710;2023-12-20T06:33:43;6.60;99.90
25346;DHT22;13300;51.032;3.710;2023-12-20T06:36:13;6.60;99.90
25346;DHT22;13300;51.032;3.710;2023-12-20T06:38:39;6.60;99.90
25346;DHT22;13300;51.032;3.710;2023-12-20T06:41:04;6.60;99.90
25346;DHT22;13300;51.032;3.710;2023-12-20T06:43:31;6.60;99.90
25346;DHT22;13300;51.032;3.710;2023-12-20T06:45:58;6.50;99.90
25346;DHT22;13300;51.032;3.710;2023-12-20T06:48:23;6.40;99.90
25346;DHT22;13300;51.032;3.710;2023-12-20T06:50:49;6.40;99.90
25346;DHT22;13300;51.032;3.710;2023-12-20T06:53:15;6.40;99.90
25346;DHT22;13300;51.032;3.710;2023-12-20T06:55:40;6.40;99.90
25346;DHT22;13300;51.032;3.710;2023-12-20T06:58:06;6.40;99.90
25346;DHT22;13300;51.032;3.710;2023-12-20T07:00:32;6.40;99.90
25346;DHT22;13300;51.032;3.710;2023-12-20T07:02:59;6.40;99.90
25346;DHT22;13300;51.032;3.710;2023-12-20T07:05:24;6.30;99.90
25346;DHT22;13300;51.032;3.710;2023-12-20T07:07:50;6.30;99.90
25346;DHT22;13300;51.032;3.710;2023-12-20T07:10:16;6.30;99.90
25346;DHT22;13300;51.032;3.710;2023-12-20T07:12:42;6.40;99.90
25346;DHT22;13300;51.032;3.710;2023-12-20T07:15:08;6.60;99.90
25346;DHT22;13300;51.032;3.710;2023-12-20T07:17:34;6.80;99.90
25346;DHT22;13300;51.032;3.710;2023-12-20T07:20:00;6.80;99.90
25346;DHT22;13300;51.032;3.710;2023-12-20T07:22:33;6.80;99.90
25346;DHT22;13300;51.032;3.710;2023-12-20T07:24:59;6.80;99.90
25346;DHT22;13300;51.032;3.710;2023-12-20T07:27:25;6.80;99.90
25346;DHT22;13300;51.032;3.710;2023-12-20T07:29:51;6.70;99.90
25346;DHT22;13300;51.032;3.710;2023-12-20T07:32:17;6.80;99.90
25346;DHT22;13300;51.032;3.710;2023-12-20T07:34:43;6.70;99.90
25346;DHT22;13300;51.032;3.710;2023-12-20T07:37:09;6.60;99.90
25346;DHT22;13300;51.032;3.710;2023-12-20T07:39:39;6.60;99.90
25346;DHT22;13300;51.032;3.710;2023-12-20T07:42:06;6.70;99.90
25346;DHT22;13300;51.032;3.710;2023-12-20T07:44:32;6.50;99.90
25346;DHT22;13300;51.032;3.710;2023-12-20T07:46:58;6.40;99.90
25346;DHT22;13300;51.032;3.710;2023-12-20T07:49:24;6.40;99.90
25346;DHT22;13300;51.032;3.710;2023-12-20T07:51:49;6.40;99.90
25346;DHT22;13300;51.032;3.710;2023-12-20T07:54:15;6.20;99.90
25346;DHT22;13300;51.032;3.710;2023-12-20T07:56:41;6.20;99.90
25346;DHT22;13300;51.032;3.710;2023-12-20T07:59:07;6.20;99.90
25346;DHT22;13300;51.032;3.710;2023-12-20T08:01:33;6.30;99.90
25346;DHT22;13300;51.032;3.710;2023-12-20T08:03:59;6.30;99.90
25346;DHT22;13300;51.032;3.710;2023-12-20T08:06:24;6.30;99.90
25346;DHT22;13300;51.032;3.710;2023-12-20T08:08:50;6.30;99.90
25346;DHT22;13300;51.032;3.710;2023-12-20T08:11:16;6.40;99.90
25346;DHT22;13300;51.032;3.710;2023-12-20T08:13:42;6.40;99.90
25346;DHT22;13300;51.032;3.710;2023-12-20T08:16:08;6.50;99.90
25346;DHT22;13300;51.032;3.710;2023-12-20T08:18:34;6.50;99.90
25346;DHT22;13300;51.032;3.710;2023-12-20T08:21:00;6.40;99.90
25346;DHT22;13300;51.032;3.710;2023-12-20T08:23:27;6.50;99.90
25346;DHT22;13300;51.032;3.710;2023-12-20T08:25:52;6.50;99.90
25346;DHT22;13300;51.032;3.710;2023-12-20T08:28:18;6.50;99.90
25346;DHT22;13300;51.032;3.710;2023-12-20T08:30:44;6.70;99.90
25346;DHT22;13300;51.032;3.710;2023-12-20T08:33:09;6.80;99.90
25346;DHT22;13300;51.032;3.710;2023-12-20T08:35:38;7.00;99.90
25346;DHT22;13300;51.032;3.710;2023-12-20T08:38:05;7.10;99.90
25346;DHT22;13300;51.032;3.710;2023-12-20T08:40:31;7.10;99.90
25346;DHT22;13300;51.032;3.710;2023-12-20T08:42:56;7.30;99.90
25346;DHT22;13300;51.032;3.710;2023-12-20T08:45:22;7.70;99.90
25346;DHT22;13300;51.032;3.710;2023-12-20T08:47:48;8.10;99.90
25346;DHT22;13300;51.032;3.710;2023-12-20T08:50:14;8.40;99.90
25346;DHT22;13300;51.032;3.710;2023-12-20T08:52:40;9.00;99.90
25346;DHT22;13300;51.032;3.710;2023-12-20T08:55:06;9.50;99.90
25346;DHT22;13300;51.032;3.710;2023-12-20T08:57:32;9.80;99.90
25346;DHT22;13300;51.032;3.710;2023-12-20T08:59:59;10.30;99.90
25346;DHT22;13300;51.032;3.710;2023-12-20T09:02:24;10.60;99.90
25346;DHT22;13300;51.032;3.710;2023-12-20T09:04:50;10.50;99.90
25346;DHT22;13300;51.032;3.710;2023-12-20T09:07:25;10.60;99.90
25346;DHT22;13300;51.032;3.710;2023-12-20T09:09:52;10.60;99.90
25346;DHT22;13300;51.032;3.710;2023-12-20T09:12:20;10.70;99.90
25346;DHT22;13300;51.032;3.710;2023-12-20T09:14:47;10.30;99.90
25346;DHT22;13300;51.032;3.710;2023-12-20T09:17:14;10.00;99.90
25346;DHT22;13300;51.032;3.710;2023-12-20T09:19:41;10.00;99.90
25346;DHT22;13300;51.032;3.710;2023-12-20T09:22:07;9.80;99.90
25346;DHT22;13300;51.032;3.710;2023-12-20T09:24:33;9.60;99.90
25346;DHT22;13300;51.032;3.710;2023-12-20T09:26:59;9.30;99.90
25346;DHT22;13300;51.032;3.710;2023-12-20T09:29:25;9.20;99.90
25346;DHT22;13300;51.032;3.710;2023-12-20T09:31:50;8.90;99.90
25346;DHT22;13300;51.032;3.710;2023-12-20T09:34:16;8.90;99.90
25346;DHT22;13300;51.032;3.710;2023-12-20T09:36:45;9.70;99.90
25346;DHT22;13300;51.032;3.710;2023-12-20T09:39:14;10.60;99.90
25346;DHT22;13300;51.032;3.710;2023-12-20T09:45:22;12.30;99.90
25346;DHT22;13300;51.032;3.710;2023-12-20T09:47:53;13.50;99.90
25346;DHT22;13300;51.032;3.710;2023-12-20T09:50:20;13.40;99.90
25346;DHT22;13300;51.032;3.710;2023-12-20T09:52:50;12.90;99.90
25346;DHT22;13300;51.032;3.710;2023-12-20T09:55:20;12.60;99.90
25346;DHT22;13300;51.032;3.710;2023-12-20T09:57:47;12.00;99.90
25346;DHT22;13300;51.032;3.710;2023-12-20T10:00:14;11.40;99.90
25346;DHT22;13300;51.032;3.710;2023-12-20T10:03:00;11.20;99.90
25346;DHT22;13300;51.032;3.710;2023-12-20T10:05:31;10.80;99.90
25346;DHT22;13300;51.032;3.710;2023-12-20T10:08:01;10.40;99.90
25346;DHT22;13300;51.032;3.710;2023-12-20T10:10:27;10.10;99.90
25346;DHT22;13300;51.032;3.710;2023-12-20T10:13:12;10.00;99.90
25346;DHT22;13300;51.032;3.710;2023-12-20T10:15:38;10.00;99.90
25346;DHT22;13300;51.032;3.710;2023-12-20T10:18:05;9.70;99.90
25346;DHT22;13300;51.032;3.710;2023-12-20T10:27:30;9.60;99.90
25346;DHT22;13300;51.032;3.710;2023-12-20T10:33:40;9.60;99.90
25346;DHT22;13300;51.032;3.710;2023-12-20T10:36:06;9.60;99.90
25346;DHT22;13300;51.032;3.710;2023-12-20T10:38:32;9.50;99.90
25346;DHT22;13300;51.032;3.710;2023-12-20T10:40:58;9.50;99.90
25346;DHT22;13300;51.032;3.710;2023-12-20T10:43:25;9.50;99.90
25346;DHT22;13300;51.032;3.710;2023-12-20T10:45:52;9.40;99.90
25346;DHT22;13300;51.032;3.710;2023-12-20T10:48:18;9.50;99.90
25346;DHT22;13300;51.032;3.710;2023-12-20T10:50:44;9.50;99.90
25346;DHT22;13300;51.032;3.710;2023-12-20T10:53:10;9.40;99.90
25346;DHT22;13300;51.032;3.710;2023-12-20T10:55:38;9.50;99.90
25346;DHT22;13300;51.032;3.710;2023-12-20T10:58:08;9.50;99.90
25346;DHT22;13300;51.032;3.710;2023-12-20T11:00:39;9.50;99.90
25346;DHT22;13300;51.032;3.710;2023-12-20T11:03:09;9.60;99.90
25346;DHT22;13300;51.032;3.710;2023-12-20T11:05:54;9.70;99.90
25346;DHT22;13300;51.032;3.710;2023-12-20T11:08:40;9.70;99.90
25346;DHT22;13300;51.032;3.710;2023-12-20T11:11:29;9.70;99.90
25346;DHT22;13300;51.032;3.710;2023-12-20T11:14:02;9.70;99.90
25346;DHT22;13300;51.032;3.710;2023-12-20T11:16:30;9.80;99.90
25346;DHT22;13300;51.032;3.710;2023-12-20T11:18:56;9.80;99.90
25346;DHT22;13300;51.032;3.710;2023-12-20T11:21:22;9.80;99.90
25346;DHT22;13300;51.032;3.710;2023-12-20T11:23:48;9.80;99.90
25346;DHT22;13300;51.032;3.710;2023-12-20T11:26:16;9.90;99.90
25346;DHT22;13300;51.032;3.710;2023-12-20T11:28:42;10.00;99.90
25346;DHT22;13300;51.032;3.710;2023-12-20T11:31:08;10.00;99.90
25346;DHT22;13300;51.032;3.710;2023-12-20T11:33:40;10.10;99.90
25346;DHT22;13300;51.032;3.710;2023-12-20T11:36:18;10.10;99.90
25346;DHT22;13300;51.032;3.710;2023-12-20T11:38:56;10.10;99.90
25346;DHT22;13300;51.032;3.710;2023-12-20T11:41:23;10.00;99.90
25346;DHT22;13300;51.032;3.710;2023-12-20T11:43:56;10.00;99.90
25346;DHT22;13300;51.032;3.710;2023-12-20T11:46:22;10.10;99.90
25346;DHT22;13300;51.032;3.710;2023-12-20T11:48:48;10.10;99.90
25346;DHT22;13300;51.032;3.710;2023-12-20T11:51:14;10.10;99.90
25346;DHT22;13300;51.032;3.710;2023-12-20T11:53:40;10.20;99.90
25346;DHT22;13300;51.032;3.710;2023-12-20T11:56:11;10.20;99.90
25346;DHT22;13300;51.032;3.710;2023-12-20T11:58:37;10.20;99.90
25346;DHT22;13300;51.032;3.710;2023-12-20T12:01:04;10.20;99.90
25346;DHT22;13300;51.032;3.710;2023-12-20T12:03:35;10.20;99.90
25346;DHT22;13300;51.032;3.710;2023-12-20T12:06:02;10.10;99.90
25346;DHT22;13300;51.032;3.710;2023-12-20T12:08:29;10.10;99.90
25346;DHT22;13300;51.032;3.710;2023-12-20T12:10:55;10.10;99.90
25346;DHT22;13300;51.032;3.710;2023-12-20T12:13:22;10.10;99.90
25346;DHT22;13300;51.032;3.710;2023-12-20T12:15:48;10.20;99.90
25346;DHT22;13300;51.032;3.710;2023-12-20T12:18:16;10.10;99.90
25346;DHT22;13300;51.032;3.710;2023-12-20T12:20:42;10.10;99.90
25346;DHT22;13300;51.032;3.710;2023-12-20T12:23:11;10.00;99.90
25346;DHT22;13300;51.032;3.710;2023-12-20T12:25:39;10.00;99.90
25346;DHT22;13300;51.032;3.710;2023-12-20T12:28:06;10.00;99.90
25346;DHT22;13300;51.032;3.710;2023-12-20T12:30:32;10.10;99.90
25346;DHT22;13300;51.032;3.710;2023-12-20T12:32:58;10.10;99.90
25346;DHT22;13300;51.032;3.710;2023-12-20T12:35:24;10.20;99.90
25346;DHT22;13300;51.032;3.710;2023-12-20T12:37:51;10.20;99.90
25346;DHT22;13300;51.032;3.710;2023-12-20T12:40:17;10.30;99.90
25346;DHT22;13300;51.032;3.710;2023-12-20T12:42:44;10.40;99.90
25346;DHT22;13300;51.032;3.710;2023-12-20T12:45:11;10.50;99.90
25346;DHT22;13300;51.032;3.710;2023-12-20T12:47:40;10.70;99.90
25346;DHT22;13300;51.032;3.710;2023-12-20T12:50:23;11.00;99.90
25346;DHT22;13300;51.032;3.710;2023-12-20T12:56:05;11.50;99.90
25346;DHT22;13300;51.032;3.710;2023-12-20T12:58:32;11.50;99.90
25346;DHT22;13300;51.032;3.710;2023-12-20T13:01:00;11.40;99.90
25346;DHT22;13300;51.032;3.710;2023-12-20T13:03:26;11.60;99.90
25346;DHT22;13300;51.032;3.710;2023-12-20T13:05:52;11.90;99.90
25346;DHT22;13300;51.032;3.710;2023-12-20T13:08:18;11.80;99.90
25346;DHT22;13300;51.032;3.710;2023-12-20T13:10:43;11.80;99.90
25346;DHT22;13300;51.032;3.710;2023-12-20T13:13:09;11.70;99.90
25346;DHT22;13300;51.032;3.710;2023-12-20T13:15:35;11.60;99.90
25346;DHT22;13300;51.032;3.710;2023-12-20T13:18:00;11.60;99.90
25346;DHT22;13300;51.032;3.710;2023-12-20T13:20:27;11.50;99.90
25346;DHT22;13300;51.032;3.710;2023-12-20T13:22:52;11.20;99.90
25346;DHT22;13300;51.032;3.710;2023-12-20T13:25:18;11.20;99.90
25346;DHT22;13300;51.032;3.710;2023-12-20T13:31:07;11.30;99.90
25346;DHT22;13300;51.032;3.710;2023-12-20T13:33:33;11.10;99.90
25346;DHT22;13300;51.032;3.710;2023-12-20T13:35:59;11.10;99.90
25346;DHT22;13300;51.032;3.710;2023-12-20T13:38:25;11.20;99.90
25346;DHT22;13300;51.032;3.710;2023-12-20T13:40:50;11.20;99.90
25346;DHT22;13300;51.032;3.710;2023-12-20T13:43:16;11.00;99.90
25346;DHT22;13300;51.032;3.710;2023-12-20T13:45:46;10.90;99.90
25346;DHT22;13300;51.032;3.710;2023-12-20T13:48:12;10.90;99.90
25346;DHT22;13300;51.032;3.710;2023-12-20T13:50:38;10.80;99.90
25346;DHT22;13300;51.032;3.710;2023-12-20T13:53:03;10.80;99.90
25346;DHT22;13300;51.032;3.710;2023-12-20T13:55:29;10.90;99.90
25346;DHT22;13300;51.032;3.710;2023-12-20T13:57:56;10.80;99.90
25346;DHT22;13300;51.032;3.710;2023-12-20T14:00:23;10.80;99.90
25346;DHT22;13300;51.032;3.710;2023-12-20T14:02:48;10.70;99.90
25346;DHT22;13300;51.032;3.710;2023-12-20T14:05:15;10.70;99.90
25346;DHT22;13300;51.032;3.710;2023-12-20T14:07:46;10.80;99.90
25346;DHT22;13300;51.032;3.710;2023-12-20T14:10:13;10.70;99.90
25346;DHT22;13300;51.032;3.710;2023-12-20T14:12:39;10.70;99.90
25346;DHT22;13300;51.032;3.710;2023-12-20T14:15:06;10.70;99.90
25346;DHT22;13300;51.032;3.710;2023-12-20T14:17:37;10.80;99.90
25346;DHT22;13300;51.032;3.710;2023-12-20T14:20:07;10.80;99.90
25346;DHT22;13300;51.032;3.710;2023-12-20T14:22:33;10.80;99.90
25346;DHT22;13300;51.032;3.710;2023-12-20T14:24:59;10.70;99.90
25346;DHT22;13300;51.032;3.710;2023-12-20T14:27:26;10.70;99.90
25346;DHT22;13300;51.032;3.710;2023-12-20T14:29:54;10.70;99.90
25346;DHT22;13300;51.032;3.710;2023-12-20T14:32:23;10.70;99.90
25346;DHT22;13300;51.032;3.710;2023-12-20T14:34:49;10.70;99.90
25346;DHT22;13300;51.032;3.710;2023-12-20T14:37:15;10.70;99.90
25346;DHT22;13300;51.032;3.710;2023-12-20T14:39:42;10.70;99.90
25346;DHT22;13300;51.032;3.710;2023-12-20T14:42:08;10.70;99.90
25346;DHT22;13300;51.032;3.710;2023-12-20T14:44:42;10.70;99.90
25346;DHT22;13300;51.032;3.710;2023-12-20T14:47:08;10.60;99.90
25346;DHT22;13300;51.032;3.710;2023-12-20T14:49:34;10.70;99.90
25346;DHT22;13300;51.032;3.710;2023-12-20T14:52:01;10.60;99.90
25346;DHT22;13300;51.032;3.710;2023-12-20T14:54:26;10.60;99.90
25346;DHT22;13300;51.032;3.710;2023-12-20T14:56:52;10.70;99.90
25346;DHT22;13300;51.032;3.710;2023-12-20T14:59:18;10.70;99.90
25346;DHT22;13300;51.032;3.710;2023-12-20T15:01:44;10.70;99.90
25346;DHT22;13300;51.032;3.710;2023-12-20T15:04:10;10.60;99.90
25346;DHT22;13300;51.032;3.710;2023-12-20T15:06:36;10.60;99.90
25346;DHT22;13300;51.032;3.710;2023-12-20T15:09:02;10.50;99.90
25346;DHT22;13300;51.032;3.710;2023-12-20T15:11:30;10.50;99.90
25346;DHT22;13300;51.032;3.710;2023-12-20T15:14:02;10.50;99.90
25346;DHT22;13300;51.032;3.710;2023-12-20T15:16:31;10.60;99.90
25346;DHT22;13300;51.032;3.710;2023-12-20T15:18:56;10.50;99.90
25346;DHT22;13300;51.032;3.710;2023-12-20T15:21:23;10.50;99.90
25346;DHT22;13300;51.032;3.710;2023-12-20T15:23:57;10.50;99.90
25346;DHT22;13300;51.032;3.710;2023-12-20T15:26:34;10.40;99.90
25346;DHT22;13300;51.032;3.710;2023-12-20T15:29:03;10.40;99.90
25346;DHT22;13300;51.032;3.710;2023-12-20T15:31:30;10.40;99.90
25346;DHT22;13300;51.032;3.710;2023-12-20T15:33:57;10.30;99.90
25346;DHT22;13300;51.032;3.710;2023-12-20T15:36:22;10.40;99.90
25346;DHT22;13300;51.032;3.710;2023-12-20T15:38:48;10.30;99.90
25346;DHT22;13300;51.032;3.710;2023-12-20T15:41:21;10.40;99.90
25346;DHT22;13300;51.032;3.710;2023-12-20T15:43:47;10.40;99.90
25346;DHT22;13300;51.032;3.710;2023-12-20T15:46:14;10.40;99.90
25346;DHT22;13300;51.032;3.710;2023-12-20T15:48:40;10.40;99.90
25346;DHT22;13300;51.032;3.710;2023-12-20T15:51:09;10.40;99.90
25346;DHT22;13300;51.032;3.710;2023-12-20T15:53:35;10.40;99.90
25346;DHT22;13300;51.032;3.710;2023-12-20T15:56:03;10.40;99.90
25346;DHT22;13300;51.032;3.710;2023-12-20T15:58:32;10.40;99.90